Date,TemperatureHighF,TemperatureAvgF,TemperatureLowF,DewpointHighF,DewpointAvgF,DewpointLowF,HumidityHigh,HumidityAvg,HumidityLow,PressureMaxIn,PressureMinIn,WindSpeedMaxMPH,WindSpeedAvgMPH,GustSpeedMaxMPH,PrecipitationSumIn
2013-4-1,31.7,26.0,19.2,22.8,20.8,17.3,94,81,66,29.90,29.81,14,7,17,0.00
2013-4-2,36.3,25.4,16.2,25.8,20.3,14.0,92,81,62,29.96,29.87,19,4,26,0.00
2013-4-3,31.3,28.4,26.4,25.2,23.6,21.7,86,82,72,29.99,29.96,13,5,16,0.00
2013-4-4,39.2,27.7,26.0,29.2,24.1,22.6,89,86,66,29.97,29.85,10,4,14,0.00
2013-4-5,33.6,28.9,27.9,29.3,26.4,25.6,92,91,84,29.89,29.75,10,4,14,0.00
2013-4-6,37.0,30.5,29.5,30.3,28.0,27.1,94,90,74,30.14,29.89,8,3,14,0.00
2013-4-7,44.1,29.4,24.4,27.2,25.3,20.0,93,86,43,30.18,30.05,7,3,16,0.00
2013-4-8,45.3,38.3,25.2,28.2,25.3,20.3,91,60,48,30.04,29.72,13,5,22,0.00
2013-4-9,47.7,35.7,33.4,37.9,28.4,24.7,97,75,62,29.73,29.62,7,2,13,0.22
2013-4-10,46.0,36.4,34.6,42.6,35.8,33.8,99,97,86,29.84,29.65,5,0,15,0.19
2013-4-11,49.5,36.1,31.2,49.0,35.8,30.4,99,99,97,29.84,29.60,4,1,15,0.14
2013-4-12,52.0,47.3,37.4,48.7,46.4,36.4,99,97,67,29.78,29.51,10,5,22,0.20
2013-4-13,54.0,42.1,35.6,40.6,38.8,33.7,97,88,50,30.26,29.78,9,4,25,0.00
2013-4-14,60.4,34.8,29.1,46.5,32.6,28.1,98,93,56,30.37,30.26,4,0,12,0.00
2013-4-15,70.3,43.2,36.4,47.5,38.9,35.4,96,87,42,30.32,30.11,8,2,19,0.00
2013-4-16,68.7,44.8,37.5,54.0,39.8,35.2,94,83,56,30.17,30.07,5,1,14,0.03
2013-4-17,66.9,46.8,41.3,51.1,43.8,40.5,98,91,52,30.23,30.13,4,0,11,0.00
2013-4-18,74.7,46.6,40.7,58.6,43.9,39.6,97,92,47,30.12,29.95,8,0,28,0.02
2013-4-19,56.7,49.0,40.5,46.3,39.2,31.8,95,69,45,30.24,30.04,8,3,13,0.13
2013-4-20,47.7,40.7,39.4,40.6,38.5,37.0,96,92,73,30.32,30.24,11,3,21,0.01
2013-4-21,61.0,42.6,39.3,48.0,38.3,36.3,95,85,60,30.25,29.95,12,6,22,0.00
2013-4-22,60.4,42.5,37.5,52.0,40.8,36.7,99,94,68,30.05,29.93,7,1,14,0.02
2013-4-23,61.5,42.3,36.7,49.6,38.8,34.6,99,90,40,30.25,30.05,9,1,22,0.00
2013-4-24,68.4,40.8,34.7,46.1,36.4,33.2,95,86,42,30.33,30.24,6,1,14,0.00
2013-4-25,73.6,43.6,36.5,53.0,39.7,35.2,96,89,37,30.30,30.12,4,0,11,0.00
2013-4-26,73.9,46.8,39.4,54.3,42.0,38.1,96,87,34,30.11,29.60,7,1,22,0.00
2013-4-27,54.9,49.9,40.5,51.4,47.8,38.6,96,93,85,29.73,29.56,9,3,23,0.06
2013-4-28,53.1,39.7,37.0,42.7,36.6,34.1,94,89,64,30.01,29.71,11,4,24,0.00
2013-4-29,50.9,44.2,39.4,45.9,41.7,38.1,97,91,77,30.15,29.97,4,1,12,0.04
2013-4-30,56.5,40.6,36.5,47.8,39.4,35.5,99,96,67,30.17,30.09,11,1,24,0.19